sensor_id;sensor_type;location;lat;lon;timestamp;temperature;humidity
39957;DHT22;48483;44.640;7.494;2022-08-01T00:01:33;24.70;82.40
39957;DHT22;48483;44.640;7.494;2022-08-01T00:04:00;24.70;83.90
39957;DHT22;48483;44.640;7.494;2022-08-01T00:06:27;24.60;83.50
39957;DHT22;48483;44.640;7.494;2022-08-01T00:08:54;24.60;83.70
39957;DHT22;48483;44.640;7.494;2022-08-01T00:11:21;24.70;83.80
39957;DHT22;48483;44.640;7.494;2022-08-01T00:13:47;24.60;84.90
39957;DHT22;48483;44.640;7.494;2022-08-01T00:16:14;24.50;85.40
39957;DHT22;48483;44.640;7.494;2022-08-01T00:18:43;24.50;85.40
39957;DHT22;48483;44.640;7.494;2022-08-01T00:21:10;24.40;83.70
39957;DHT22;48483;44.640;7.494;2022-08-01T00:23:37;24.40;83.90
39957;DHT22;48483;44.640;7.494;2022-08-01T00:26:03;24.40;84.20
39957;DHT22;48483;44.640;7.494;2022-08-01T00:28:30;24.40;84.30
39957;DHT22;48483;44.640;7.494;2022-08-01T00:30:57;24.40;84.40
39957;DHT22;48483;44.640;7.494;2022-08-01T00:33:23;24.50;84.60
39957;DHT22;48483;44.640;7.494;2022-08-01T00:35:51;24.50;85.50
39957;DHT22;48483;44.640;7.494;2022-08-01T00:38:18;24.50;85.30
39957;DHT22;48483;44.640;7.494;2022-08-01T00:40:45;24.50;85.90
39957;DHT22;48483;44.640;7.494;2022-08-01T00:43:11;24.50;86.00
39957;DHT22;48483;44.640;7.494;2022-08-01T00:45:38;24.40;86.00
39957;DHT22;48483;44.640;7.494;2022-08-01T00:48:05;24.40;85.80
39957;DHT22;48483;44.640;7.494;2022-08-01T00:50:32;24.50;85.40
39957;DHT22;48483;44.640;7.494;2022-08-01T00:53:01;24.50;84.80
39957;DHT22;48483;44.640;7.494;2022-08-01T00:55:29;24.50;84.00
39957;DHT22;48483;44.640;7.494;2022-08-01T00:57:57;24.50;83.40
39957;DHT22;48483;44.640;7.494;2022-08-01T01:00:25;24.40;85.50
39957;DHT22;48483;44.640;7.494;2022-08-01T01:02:52;24.50;84.90
39957;DHT22;48483;44.640;7.494;2022-08-01T01:05:19;24.40;86.80
39957;DHT22;48483;44.640;7.494;2022-08-01T01:07:50;24.40;87.30
39957;DHT22;48483;44.640;7.494;2022-08-01T01:10:24;24.40;87.20
39957;DHT22;48483;44.640;7.494;2022-08-01T01:12:55;24.30;87.80
39957;DHT22;48483;44.640;7.494;2022-08-01T01:15:30;24.20;88.40
39957;DHT22;48483;44.640;7.494;2022-08-01T01:18:04;24.10;89.10
39957;DHT22;48483;44.640;7.494;2022-08-01T01:20:37;24.20;89.50
39957;DHT22;48483;44.640;7.494;2022-08-01T01:23:21;24.20;90.00
39957;DHT22;48483;44.640;7.494;2022-08-01T01:26:14;24.20;89.90
39957;DHT22;48483;44.640;7.494;2022-08-01T01:29:02;24.20;90.00
39957;DHT22;48483;44.640;7.494;2022-08-01T01:31:33;24.20;89.60
39957;DHT22;48483;44.640;7.494;2022-08-01T01:34:03;24.20;89.10
39957;DHT22;48483;44.640;7.494;2022-08-01T01:36:31;24.20;87.40
39957;DHT22;48483;44.640;7.494;2022-08-01T01:38:59;24.20;86.80
39957;DHT22;48483;44.640;7.494;2022-08-01T01:41:28;24.10;87.60
39957;DHT22;48483;44.640;7.494;2022-08-01T01:43:56;24.10;87.40
39957;DHT22;48483;44.640;7.494;2022-08-01T01:46:26;24.10;86.70
39957;DHT22;48483;44.640;7.494;2022-08-01T01:48:54;24.10;86.30
39957;DHT22;48483;44.640;7.494;2022-08-01T01:51:22;24.10;86.20
39957;DHT22;48483;44.640;7.494;2022-08-01T01:53:52;24.10;86.30
39957;DHT22;48483;44.640;7.494;2022-08-01T01:56:20;24.10;85.10
39957;DHT22;48483;44.640;7.494;2022-08-01T01:58:49;24.10;84.80
39957;DHT22;48483;44.640;7.494;2022-08-01T02:01:18;24.10;84.70
39957;DHT22;48483;44.640;7.494;2022-08-01T02:03:47;24.10;85.40
39957;DHT22;48483;44.640;7.494;2022-08-01T02:06:16;24.10;85.10
39957;DHT22;48483;44.640;7.494;2022-08-01T02:08:43;24.00;83.30
39957;DHT22;48483;44.640;7.494;2022-08-01T02:11:10;24.10;84.10
39957;DHT22;48483;44.640;7.494;2022-08-01T02:13:53;24.10;86.10
39957;DHT22;48483;44.640;7.494;2022-08-01T02:16:26;24.00;87.80
39957;DHT22;48483;44.640;7.494;2022-08-01T02:18:54;24.00;88.80
39957;DHT22;48483;44.640;7.494;2022-08-01T02:21:27;23.90;89.40
39957;DHT22;48483;44.640;7.494;2022-08-01T02:23:56;23.90;90.10
39957;DHT22;48483;44.640;7.494;2022-08-01T02:26:27;23.80;90.40
39957;DHT22;48483;44.640;7.494;2022-08-01T02:28:59;23.70;90.80
39957;DHT22;48483;44.640;7.494;2022-08-01T02:31:32;23.70;91.10
39957;DHT22;48483;44.640;7.494;2022-08-01T02:34:05;23.70;90.90
39957;DHT22;48483;44.640;7.494;2022-08-01T02:36:34;23.70;90.70
39957;DHT22;48483;44.640;7.494;2022-08-01T02:39:04;23.70;91.00
39957;DHT22;48483;44.640;7.494;2022-08-01T02:41:36;23.70;91.40
39957;DHT22;48483;44.640;7.494;2022-08-01T02:44:07;23.70;91.20
39957;DHT22;48483;44.640;7.494;2022-08-01T02:46:39;23.70;91.00
39957;DHT22;48483;44.640;7.494;2022-08-01T02:49:09;23.70;91.30
39957;DHT22;48483;44.640;7.494;2022-08-01T02:51:36;23.70;91.40
39957;DHT22;48483;44.640;7.494;2022-08-01T02:54:07;23.60;91.40
39957;DHT22;48483;44.640;7.494;2022-08-01T02:56:35;23.50;91.80
39957;DHT22;48483;44.640;7.494;2022-08-01T02:59:05;23.50;91.90
39957;DHT22;48483;44.640;7.494;2022-08-01T03:01:35;23.50;91.90
39957;DHT22;48483;44.640;7.494;2022-08-01T03:04:03;23.50;91.70
39957;DHT22;48483;44.640;7.494;2022-08-01T03:06:32;23.50;91.90
39957;DHT22;48483;44.640;7.494;2022-08-01T03:09:00;23.50;91.90
39957;DHT22;48483;44.640;7.494;2022-08-01T03:11:28;23.60;92.00
39957;DHT22;48483;44.640;7.494;2022-08-01T03:13:56;23.50;92.00
39957;DHT22;48483;44.640;7.494;2022-08-01T03:16:26;23.60;92.10
39957;DHT22;48483;44.640;7.494;2022-08-01T03:18:56;23.50;92.30
39957;DHT22;48483;44.640;7.494;2022-08-01T03:21:24;23.40;92.50
39957;DHT22;48483;44.640;7.494;2022-08-01T03:23:53;23.40;92.80
39957;DHT22;48483;44.640;7.494;2022-08-01T03:26:26;23.30;93.10
39957;DHT22;48483;44.640;7.494;2022-08-01T03:28:56;23.30;93.00
39957;DHT22;48483;44.640;7.494;2022-08-01T03:31:24;23.30;92.90
39957;DHT22;48483;44.640;7.494;2022-08-01T03:33:51;23.30;93.00
39957;DHT22;48483;44.640;7.494;2022-08-01T03:36:22;23.30;93.20
39957;DHT22;48483;44.640;7.494;2022-08-01T03:38:52;23.30;93.20
39957;DHT22;48483;44.640;7.494;2022-08-01T03:41:24;23.20;93.10
39957;DHT22;48483;44.640;7.494;2022-08-01T03:43:55;23.20;93.00
39957;DHT22;48483;44.640;7.494;2022-08-01T03:46:26;23.20;93.10
39957;DHT22;48483;44.640;7.494;2022-08-01T03:48:58;23.20;93.30
39957;DHT22;48483;44.640;7.494;2022-08-01T03:51:30;23.20;93.40
39957;DHT22;48483;44.640;7.494;2022-08-01T03:53:59;23.20;93.40
39957;DHT22;48483;44.640;7.494;2022-08-01T03:56:28;23.20;93.00
39957;DHT22;48483;44.640;7.494;2022-08-01T03:58:59;23.20;93.50
39957;DHT22;48483;44.640;7.494;2022-08-01T04:01:27;23.20;93.90
39957;DHT22;48483;44.640;7.494;2022-08-01T04:03:54;23.20;94.30
39957;DHT22;48483;44.640;7.494;2022-08-01T04:06:21;23.20;94.50
39957;DHT22;48483;44.640;7.494;2022-08-01T04:08:50;23.10;94.60
39957;DHT22;48483;44.640;7.494;2022-08-01T04:11:24;23.10;94.80
39957;DHT22;48483;44.640;7.494;2022-08-01T04:13:52;23.10;94.90
39957;DHT22;48483;44.640;7.494;2022-08-01T04:16:19;23.10;94.90
39957;DHT22;48483;44.640;7.494;2022-08-01T04:18:46;23.00;94.50
39957;DHT22;48483;44.640;7.494;2022-08-01T04:21:13;23.00;94.30
39957;DHT22;48483;44.640;7.494;2022-08-01T04:23:41;23.00;94.40
39957;DHT22;48483;44.640;7.494;2022-08-01T04:26:12;22.90;94.40
39957;DHT22;48483;44.640;7.494;2022-08-01T04:28:41;22.80;94.10
39957;DHT22;48483;44.640;7.494;2022-08-01T04:31:09;22.90;94.30
39957;DHT22;48483;44.640;7.494;2022-08-01T04:33:39;22.90;94.50
39957;DHT22;48483;44.640;7.494;2022-08-01T04:36:08;22.80;94.00
39957;DHT22;48483;44.640;7.494;2022-08-01T04:38:37;22.90;94.00
39957;DHT22;48483;44.640;7.494;2022-08-01T04:41:06;22.90;93.70
39957;DHT22;48483;44.640;7.494;2022-08-01T04:43:34;22.90;93.60
39957;DHT22;48483;44.640;7.494;2022-08-01T04:46:02;22.90;93.40
39957;DHT22;48483;44.640;7.494;2022-08-01T04:48:31;22.90;93.50
39957;DHT22;48483;44.640;7.494;2022-08-01T04:50:59;22.90;94.20
39957;DHT22;48483;44.640;7.494;2022-08-01T04:53:26;22.90;94.10
39957;DHT22;48483;44.640;7.494;2022-08-01T04:55:53;22.90;94.50
39957;DHT22;48483;44.640;7.494;2022-08-01T04:58:19;22.90;94.70
39957;DHT22;48483;44.640;7.494;2022-08-01T05:00:47;22.90;94.90
39957;DHT22;48483;44.640;7.494;2022-08-01T05:03:14;22.80;95.10
39957;DHT22;48483;44.640;7.494;2022-08-01T05:05:41;22.80;95.10
39957;DHT22;48483;44.640;7.494;2022-08-01T05:08:08;22.80;94.90
39957;DHT22;48483;44.640;7.494;2022-08-01T05:10:34;22.90;95.10
39957;DHT22;48483;44.640;7.494;2022-08-01T05:13:01;22.90;94.70
39957;DHT22;48483;44.640;7.494;2022-08-01T05:15:28;23.00;94.80
39957;DHT22;48483;44.640;7.494;2022-08-01T05:17:56;23.00;95.20
39957;DHT22;48483;44.640;7.494;2022-08-01T05:20:22;23.00;95.30
39957;DHT22;48483;44.640;7.494;2022-08-01T05:22:49;23.00;95.40
39957;DHT22;48483;44.640;7.494;2022-08-01T05:25:16;23.00;95.40
39957;DHT22;48483;44.640;7.494;2022-08-01T05:27:43;23.10;95.50
39957;DHT22;48483;44.640;7.494;2022-08-01T05:30:10;23.10;95.40
39957;DHT22;48483;44.640;7.494;2022-08-01T05:32:37;23.10;95.60
39957;DHT22;48483;44.640;7.494;2022-08-01T05:35:07;23.20;95.70
39957;DHT22;48483;44.640;7.494;2022-08-01T05:37:34;23.20;96.10
39957;DHT22;48483;44.640;7.494;2022-08-01T05:40:01;23.30;96.40
39957;DHT22;48483;44.640;7.494;2022-08-01T05:42:28;23.30;97.00
39957;DHT22;48483;44.640;7.494;2022-08-01T05:44:54;23.40;97.10
39957;DHT22;48483;44.640;7.494;2022-08-01T05:47:21;23.40;97.60
39957;DHT22;48483;44.640;7.494;2022-08-01T05:49:48;23.40;98.10
39957;DHT22;48483;44.640;7.494;2022-08-01T05:52:16;23.50;98.30
39957;DHT22;48483;44.640;7.494;2022-08-01T05:54:43;23.50;97.70
39957;DHT22;48483;44.640;7.494;2022-08-01T05:57:09;23.50;97.80
39957;DHT22;48483;44.640;7.494;2022-08-01T05:59:36;23.60;97.70
39957;DHT22;48483;44.640;7.494;2022-08-01T06:02:03;23.60;97.40
39957;DHT22;48483;44.640;7.494;2022-08-01T06:04:29;23.70;96.90
39957;DHT22;48483;44.640;7.494;2022-08-01T06:06:56;23.70;97.40
39957;DHT22;48483;44.640;7.494;2022-08-01T06:09:24;23.80;97.80
39957;DHT22;48483;44.640;7.494;2022-08-01T06:11:51;23.90;96.90
39957;DHT22;48483;44.640;7.494;2022-08-01T06:14:17;24.00;96.40
39957;DHT22;48483;44.640;7.494;2022-08-01T06:16:44;24.10;95.80
39957;DHT22;48483;44.640;7.494;2022-08-01T06:19:11;24.20;93.90
39957;DHT22;48483;44.640;7.494;2022-08-01T06:21:38;24.40;93.40
39957;DHT22;48483;44.640;7.494;2022-08-01T06:24:05;24.50;93.10
39957;DHT22;48483;44.640;7.494;2022-08-01T06:26:33;24.70;93.10
39957;DHT22;48483;44.640;7.494;2022-08-01T06:28:59;24.80;92.40
39957;DHT22;48483;44.640;7.494;2022-08-01T06:31:26;25.00;90.90
39957;DHT22;48483;44.640;7.494;2022-08-01T06:33:53;25.10;89.40
39957;DHT22;48483;44.640;7.494;2022-08-01T06:36:19;25.20;89.60
39957;DHT22;48483;44.640;7.494;2022-08-01T06:38:46;25.40;89.40
39957;DHT22;48483;44.640;7.494;2022-08-01T06:41:13;25.50;87.80
39957;DHT22;48483;44.640;7.494;2022-08-01T06:43:41;25.70;87.20
39957;DHT22;48483;44.640;7.494;2022-08-01T06:46:08;25.80;86.30
39957;DHT22;48483;44.640;7.494;2022-08-01T06:48:34;26.00;84.20
39957;DHT22;48483;44.640;7.494;2022-08-01T06:51:05;26.00;83.70
39957;DHT22;48483;44.640;7.494;2022-08-01T06:53:36;26.20;82.90
39957;DHT22;48483;44.640;7.494;2022-08-01T06:56:04;26.30;82.70
39957;DHT22;48483;44.640;7.494;2022-08-01T06:58:30;26.40;81.60
39957;DHT22;48483;44.640;7.494;2022-08-01T07:00:58;26.50;81.20
39957;DHT22;48483;44.640;7.494;2022-08-01T07:03:25;26.70;80.10
39957;DHT22;48483;44.640;7.494;2022-08-01T07:05:52;26.70;78.70
39957;DHT22;48483;44.640;7.494;2022-08-01T07:08:19;26.80;78.00
39957;DHT22;48483;44.640;7.494;2022-08-01T07:10:47;26.90;77.80
39957;DHT22;48483;44.640;7.494;2022-08-01T07:13:13;27.00;76.90
39957;DHT22;48483;44.640;7.494;2022-08-01T07:15:44;27.20;76.60
39957;DHT22;48483;44.640;7.494;2022-08-01T07:18:12;27.30;75.20
39957;DHT22;48483;44.640;7.494;2022-08-01T07:20:38;27.40;75.00
39957;DHT22;48483;44.640;7.494;2022-08-01T07:23:05;27.50;74.40
39957;DHT22;48483;44.640;7.494;2022-08-01T07:25:32;27.50;73.90
39957;DHT22;48483;44.640;7.494;2022-08-01T07:27:58;27.60;74.50
39957;DHT22;48483;44.640;7.494;2022-08-01T07:30:25;27.60;74.10
39957;DHT22;48483;44.640;7.494;2022-08-01T07:32:52;27.70;72.60
39957;DHT22;48483;44.640;7.494;2022-08-01T07:35:21;27.80;72.50
39957;DHT22;48483;44.640;7.494;2022-08-01T07:37:47;27.90;72.40
39957;DHT22;48483;44.640;7.494;2022-08-01T07:40:15;28.00;72.50
39957;DHT22;48483;44.640;7.494;2022-08-01T07:42:41;28.00;71.80
39957;DHT22;48483;44.640;7.494;2022-08-01T07:45:10;28.20;69.80
39957;DHT22;48483;44.640;7.494;2022-08-01T07:47:37;28.20;65.10
39957;DHT22;48483;44.640;7.494;2022-08-01T07:50:05;28.30;64.30
39957;DHT22;48483;44.640;7.494;2022-08-01T07:52:34;28.40;64.10
39957;DHT22;48483;44.640;7.494;2022-08-01T07:55:01;28.40;62.30
39957;DHT22;48483;44.640;7.494;2022-08-01T07:57:27;28.50;62.40
39957;DHT22;48483;44.640;7.494;2022-08-01T07:59:54;28.50;62.60
39957;DHT22;48483;44.640;7.494;2022-08-01T08:02:21;28.50;62.70
39957;DHT22;48483;44.640;7.494;2022-08-01T08:04:48;28.50;62.90
39957;DHT22;48483;44.640;7.494;2022-08-01T08:07:14;28.50;62.80
39957;DHT22;48483;44.640;7.494;2022-08-01T08:09:42;28.60;63.30
39957;DHT22;48483;44.640;7.494;2022-08-01T08:12:09;28.70;63.70
39957;DHT22;48483;44.640;7.494;2022-08-01T08:14:36;28.80;61.90
39957;DHT22;48483;44.640;7.494;2022-08-01T08:17:03;28.80;62.20
39957;DHT22;48483;44.640;7.494;2022-08-01T08:19:30;29.00;62.30
39957;DHT22;48483;44.640;7.494;2022-08-01T08:21:59;29.10;62.10
39957;DHT22;48483;44.640;7.494;2022-08-01T08:24:26;29.20;60.70
39957;DHT22;48483;44.640;7.494;2022-08-01T08:26:56;29.20;59.90
39957;DHT22;48483;44.640;7.494;2022-08-01T08:29:24;29.20;59.10
39957;DHT22;48483;44.640;7.494;2022-08-01T08:31:52;29.20;59.10
39957;DHT22;48483;44.640;7.494;2022-08-01T08:34:19;29.20;58.40
39957;DHT22;48483;44.640;7.494;2022-08-01T08:36:46;29.30;58.90
39957;DHT22;48483;44.640;7.494;2022-08-01T08:39:13;29.20;57.70
39957;DHT22;48483;44.640;7.494;2022-08-01T08:41:40;29.40;58.20
39957;DHT22;48483;44.640;7.494;2022-08-01T08:44:09;29.50;58.20
39957;DHT22;48483;44.640;7.494;2022-08-01T08:46:40;29.40;55.90
39957;DHT22;48483;44.640;7.494;2022-08-01T08:49:09;29.20;55.10
39957;DHT22;48483;44.640;7.494;2022-08-01T08:51:39;29.20;55.00
39957;DHT22;48483;44.640;7.494;2022-08-01T08:54:06;29.20;56.20
39957;DHT22;48483;44.640;7.494;2022-08-01T08:56:34;29.20;57.20
39957;DHT22;48483;44.640;7.494;2022-08-01T08:59:02;29.40;57.60
39957;DHT22;48483;44.640;7.494;2022-08-01T09:01:31;29.50;56.70
39957;DHT22;48483;44.640;7.494;2022-08-01T09:03:59;29.50;56.30
39957;DHT22;48483;44.640;7.494;2022-08-01T09:06:26;29.50;57.00
39957;DHT22;48483;44.640;7.494;2022-08-01T09:08:52;29.50;57.00
39957;DHT22;48483;44.640;7.494;2022-08-01T09:11:20;29.50;56.40
39957;DHT22;48483;44.640;7.494;2022-08-01T09:14:05;29.50;56.10
39957;DHT22;48483;44.640;7.494;2022-08-01T09:16:35;29.60;56.80
39957;DHT22;48483;44.640;7.494;2022-08-01T09:19:07;29.70;56.70
39957;DHT22;48483;44.640;7.494;2022-08-01T09:21:34;29.80;57.10
39957;DHT22;48483;44.640;7.494;2022-08-01T09:24:01;29.90;56.20
39957;DHT22;48483;44.640;7.494;2022-08-01T09:26:33;30.00;57.00
39957;DHT22;48483;44.640;7.494;2022-08-01T09:29:03;30.10;56.00
39957;DHT22;48483;44.640;7.494;2022-08-01T09:31:38;29.90;55.80
39957;DHT22;48483;44.640;7.494;2022-08-01T09:34:06;29.90;56.50
39957;DHT22;48483;44.640;7.494;2022-08-01T09:36:44;29.90;57.70
39957;DHT22;48483;44.640;7.494;2022-08-01T09:39:15;30.00;58.00
39957;DHT22;48483;44.640;7.494;2022-08-01T09:41:42;30.00;57.30
39957;DHT22;48483;44.640;7.494;2022-08-01T09:44:08;30.00;56.70
39957;DHT22;48483;44.640;7.494;2022-08-01T09:46:35;30.00;57.10
39957;DHT22;48483;44.640;7.494;2022-08-01T09:49:03;30.10;56.70
39957;DHT22;48483;44.640;7.494;2022-08-01T09:51:33;30.10;57.10
39957;DHT22;48483;44.640;7.494;2022-08-01T09:54:01;30.10;57.30
39957;DHT22;48483;44.640;7.494;2022-08-01T09:56:36;30.20;57.60
39957;DHT22;48483;44.640;7.494;2022-08-01T09:59:04;30.30;57.50
39957;DHT22;48483;44.640;7.494;2022-08-01T10:01:42;30.30;57.40
39957;DHT22;48483;44.640;7.494;2022-08-01T10:04:11;30.30;56.40
39957;DHT22;48483;44.640;7.494;2022-08-01T10:06:40;30.30;55.80
39957;DHT22;48483;44.640;7.494;2022-08-01T10:09:09;30.40;56.90
39957;DHT22;48483;44.640;7.494;2022-08-01T10:11:36;30.40;57.10
39957;DHT22;48483;44.640;7.494;2022-08-01T10:14:06;30.40;57.30
39957;DHT22;48483;44.640;7.494;2022-08-01T10:16:34;30.40;56.00
39957;DHT22;48483;44.640;7.494;2022-08-01T10:19:02;30.40;56.00
39957;DHT22;48483;44.640;7.494;2022-08-01T10:21:31;30.40;57.00
39957;DHT22;48483;44.640;7.494;2022-08-01T10:24:01;30.50;57.30
39957;DHT22;48483;44.640;7.494;2022-08-01T10:26:31;30.50;57.00
39957;DHT22;48483;44.640;7.494;2022-08-01T10:28:58;30.60;56.90
39957;DHT22;48483;44.640;7.494;2022-08-01T10:31:25;30.60;55.60
39957;DHT22;48483;44.640;7.494;2022-08-01T10:33:54;30.50;56.70
39957;DHT22;48483;44.640;7.494;2022-08-01T10:36:21;30.60;56.30
39957;DHT22;48483;44.640;7.494;2022-08-01T10:38:49;30.60;54.30
39957;DHT22;48483;44.640;7.494;2022-08-01T10:41:18;30.60;54.60
39957;DHT22;48483;44.640;7.494;2022-08-01T10:43:45;30.60;53.90
39957;DHT22;48483;44.640;7.494;2022-08-01T10:46:12;30.70;53.60
39957;DHT22;48483;44.640;7.494;2022-08-01T10:48:44;30.70;52.90
39957;DHT22;48483;44.640;7.494;2022-08-01T10:51:11;30.60;52.40
39957;DHT22;48483;44.640;7.494;2022-08-01T10:53:46;30.70;52.90
39957;DHT22;48483;44.640;7.494;2022-08-01T10:56:14;30.80;52.70
39957;DHT22;48483;44.640;7.494;2022-08-01T10:58:43;30.90;51.90
39957;DHT22;48483;44.640;7.494;2022-08-01T11:01:14;30.80;51.20
39957;DHT22;48483;44.640;7.494;2022-08-01T11:03:42;30.90;52.00
39957;DHT22;48483;44.640;7.494;2022-08-01T11:06:16;30.90;52.80
39957;DHT22;48483;44.640;7.494;2022-08-01T11:08:51;30.90;52.50
39957;DHT22;48483;44.640;7.494;2022-08-01T11:11:19;30.80;52.40
39957;DHT22;48483;44.640;7.494;2022-08-01T11:14:03;30.80;53.00
39957;DHT22;48483;44.640;7.494;2022-08-01T11:16:35;30.70;53.70
39957;DHT22;48483;44.640;7.494;2022-08-01T11:19:03;30.70;54.00
39957;DHT22;48483;44.640;7.494;2022-08-01T11:21:59;30.70;54.10
39957;DHT22;48483;44.640;7.494;2022-08-01T11:24:55;30.80;54.70
39957;DHT22;48483;44.640;7.494;2022-08-01T11:27:25;30.80;54.90
39957;DHT22;48483;44.640;7.494;2022-08-01T11:30:23;30.80;55.30
39957;DHT22;48483;44.640;7.494;2022-08-01T11:32:53;30.80;54.90
39957;DHT22;48483;44.640;7.494;2022-08-01T11:35:21;30.80;54.90
39957;DHT22;48483;44.640;7.494;2022-08-01T11:37:50;30.80;54.80
39957;DHT22;48483;44.640;7.494;2022-08-01T11:40:19;30.90;54.70
39957;DHT22;48483;44.640;7.494;2022-08-01T11:42:47;31.00;53.60
39957;DHT22;48483;44.640;7.494;2022-08-01T11:45:14;30.90;53.40
39957;DHT22;48483;44.640;7.494;2022-08-01T11:47:46;31.00;52.90
39957;DHT22;48483;44.640;7.494;2022-08-01T11:50:32;31.00;52.40
39957;DHT22;48483;44.640;7.494;2022-08-01T11:52:59;31.00;52.50
39957;DHT22;48483;44.640;7.494;2022-08-01T11:55:27;31.10;52.90
39957;DHT22;48483;44.640;7.494;2022-08-01T11:58:01;31.10;52.20
39957;DHT22;48483;44.640;7.494;2022-08-01T12:00:28;31.10;52.40
39957;DHT22;48483;44.640;7.494;2022-08-01T12:02:59;31.20;51.60
39957;DHT22;48483;44.640;7.494;2022-08-01T12:05:27;31.30;51.70
39957;DHT22;48483;44.640;7.494;2022-08-01T12:07:55;31.30;51.80
39957;DHT22;48483;44.640;7.494;2022-08-01T12:10:24;31.20;52.20
39957;DHT22;48483;44.640;7.494;2022-08-01T12:12:53;31.20;52.00
39957;DHT22;48483;44.640;7.494;2022-08-01T12:15:21;31.20;51.90
39957;DHT22;48483;44.640;7.494;2022-08-01T12:17:50;31.20;51.00
39957;DHT22;48483;44.640;7.494;2022-08-01T12:20:21;31.20;51.40
39957;DHT22;48483;44.640;7.494;2022-08-01T12:22:53;31.30;51.50
39957;DHT22;48483;44.640;7.494;2022-08-01T12:25:20;31.30;50.60
39957;DHT22;48483;44.640;7.494;2022-08-01T12:27:47;31.20;50.80
39957;DHT22;48483;44.640;7.494;2022-08-01T12:30:16;31.20;50.30
39957;DHT22;48483;44.640;7.494;2022-08-01T12:32:44;31.20;51.20
39957;DHT22;48483;44.640;7.494;2022-08-01T12:35:14;31.20;51.40
39957;DHT22;48483;44.640;7.494;2022-08-01T12:37:44;31.30;50.90
39957;DHT22;48483;44.640;7.494;2022-08-01T12:40:14;31.30;51.00
39957;DHT22;48483;44.640;7.494;2022-08-01T12:42:42;31.30;50.50
39957;DHT22;48483;44.640;7.494;2022-08-01T12:45:13;31.40;49.20
39957;DHT22;48483;44.640;7.494;2022-08-01T12:47:40;31.30;49.80
39957;DHT22;48483;44.640;7.494;2022-08-01T12:50:11;31.30;49.50
39957;DHT22;48483;44.640;7.494;2022-08-01T12:52:39;31.30;50.30
39957;DHT22;48483;44.640;7.494;2022-08-01T12:55:09;31.40;50.40
39957;DHT22;48483;44.640;7.494;2022-08-01T12:57:38;31.40;50.10
39957;DHT22;48483;44.640;7.494;2022-08-01T13:00:15;31.50;50.30
39957;DHT22;48483;44.640;7.494;2022-08-01T13:02:42;31.40;50.30
39957;DHT22;48483;44.640;7.494;2022-08-01T13:05:10;31.40;49.80
39957;DHT22;48483;44.640;7.494;2022-08-01T13:07:39;31.40;49.60
39957;DHT22;48483;44.640;7.494;2022-08-01T13:10:08;31.50;49.90
39957;DHT22;48483;44.640;7.494;2022-08-01T13:12:35;31.60;50.30
39957;DHT22;48483;44.640;7.494;2022-08-01T13:15:22;31.60;50.50
39957;DHT22;48483;44.640;7.494;2022-08-01T13:17:50;31.60;50.10
39957;DHT22;48483;44.640;7.494;2022-08-01T13:20:25;31.60;50.60
39957;DHT22;48483;44.640;7.494;2022-08-01T13:22:52;31.70;50.60
39957;DHT22;48483;44.640;7.494;2022-08-01T13:25:21;31.60;49.70
39957;DHT22;48483;44.640;7.494;2022-08-01T13:27:47;31.70;50.10
39957;DHT22;48483;44.640;7.494;2022-08-01T13:30:16;31.70;50.30
39957;DHT22;48483;44.640;7.494;2022-08-01T13:32:44;31.80;49.30
39957;DHT22;48483;44.640;7.494;2022-08-01T13:35:23;31.70;49.60
39957;DHT22;48483;44.640;7.494;2022-08-01T13:37:50;31.60;50.00
39957;DHT22;48483;44.640;7.494;2022-08-01T13:40:25;31.70;50.30
39957;DHT22;48483;44.640;7.494;2022-08-01T13:42:52;31.70;49.60
39957;DHT22;48483;44.640;7.494;2022-08-01T13:45:20;31.80;49.60
39957;DHT22;48483;44.640;7.494;2022-08-01T13:47:46;31.90;49.40
39957;DHT22;48483;44.640;7.494;2022-08-01T13:50:13;31.80;49.50
39957;DHT22;48483;44.640;7.494;2022-08-01T13:52:40;31.80;50.50
39957;DHT22;48483;44.640;7.494;2022-08-01T13:55:07;31.80;50.30
39957;DHT22;48483;44.640;7.494;2022-08-01T13:57:35;31.70;49.70
39957;DHT22;48483;44.640;7.494;2022-08-01T14:00:04;31.70;50.60
39957;DHT22;48483;44.640;7.494;2022-08-01T14:02:38;31.80;50.00
39957;DHT22;48483;44.640;7.494;2022-08-01T14:05:06;31.80;50.00
39957;DHT22;48483;44.640;7.494;2022-08-01T14:07:33;31.80;50.00
39957;DHT22;48483;44.640;7.494;2022-08-01T14:10:00;31.80;50.50
39957;DHT22;48483;44.640;7.494;2022-08-01T14:12:27;31.90;50.00
39957;DHT22;48483;44.640;7.494;2022-08-01T14:14:55;31.90;49.90
39957;DHT22;48483;44.640;7.494;2022-08-01T14:17:22;31.90;50.70
39957;DHT22;48483;44.640;7.494;2022-08-01T14:19:49;32.00;50.60
39957;DHT22;48483;44.640;7.494;2022-08-01T14:22:16;31.90;50.10
39957;DHT22;48483;44.640;7.494;2022-08-01T14:24:43;31.80;50.40
39957;DHT22;48483;44.640;7.494;2022-08-01T14:27:09;31.80;50.60
39957;DHT22;48483;44.640;7.494;2022-08-01T14:29:36;31.80;51.10
39957;DHT22;48483;44.640;7.494;2022-08-01T14:32:04;31.80;51.00
39957;DHT22;48483;44.640;7.494;2022-08-01T14:34:31;31.70;51.30
39957;DHT22;48483;44.640;7.494;2022-08-01T14:36:58;31.80;51.50
39957;DHT22;48483;44.640;7.494;2022-08-01T14:39:25;31.70;51.00
39957;DHT22;48483;44.640;7.494;2022-08-01T14:41:51;31.60;51.60
39957;DHT22;48483;44.640;7.494;2022-08-01T14:44:18;31.60;51.10
39957;DHT22;48483;44.640;7.494;2022-08-01T14:46:45;31.70;51.10
39957;DHT22;48483;44.640;7.494;2022-08-01T14:49:14;31.60;51.00
39957;DHT22;48483;44.640;7.494;2022-08-01T14:51:41;31.60;51.00
39957;DHT22;48483;44.640;7.494;2022-08-01T14:54:07;31.70;51.10
39957;DHT22;48483;44.640;7.494;2022-08-01T14:56:35;31.70;51.50
39957;DHT22;48483;44.640;7.494;2022-08-01T14:59:02;31.80;52.30
39957;DHT22;48483;44.640;7.494;2022-08-01T15:01:28;31.80;51.60
39957;DHT22;48483;44.640;7.494;2022-08-01T15:03:55;31.80;51.30
39957;DHT22;48483;44.640;7.494;2022-08-01T15:06:23;31.80;51.20
39957;DHT22;48483;44.640;7.494;2022-08-01T15:08:50;31.80;51.20
39957;DHT22;48483;44.640;7.494;2022-08-01T15:11:17;31.70;51.40
39957;DHT22;48483;44.640;7.494;2022-08-01T15:13:43;31.80;51.80
39957;DHT22;48483;44.640;7.494;2022-08-01T15:16:10;31.70;52.10
39957;DHT22;48483;44.640;7.494;2022-08-01T15:18:37;31.70;52.10
39957;DHT22;48483;44.640;7.494;2022-08-01T15:21:04;31.70;51.90
39957;DHT22;48483;44.640;7.494;2022-08-01T15:23:32;31.80;51.60
39957;DHT22;48483;44.640;7.494;2022-08-01T15:25:58;31.60;51.90
39957;DHT22;48483;44.640;7.494;2022-08-01T15:28:25;31.70;52.10
39957;DHT22;48483;44.640;7.494;2022-08-01T15:30:53;31.80;51.90
39957;DHT22;48483;44.640;7.494;2022-08-01T15:33:19;31.80;52.00
39957;DHT22;48483;44.640;7.494;2022-08-01T15:35:48;31.80;52.30
39957;DHT22;48483;44.640;7.494;2022-08-01T15:38:14;31.80;51.90
39957;DHT22;48483;44.640;7.494;2022-08-01T15:40:42;31.80;51.90